Time,TemperatureF,DewpointF,PressureIn,WindDirection,WindDirectionDegrees,WindSpeedMPH,WindSpeedGustMPH,Humidity,HourlyPrecipIn,Conditions,Clouds,dailyrainin,SolarRadiationWatts/m^2,SoftwareType,DateUTC
2013-03-09 00:00:00,45.1,42.4,30.00,SW,225,2.7,4.3,90,0.00,,,0.00,0.00,VWS V14.01,2013-03-09 08:00:00,
2013-03-09 00:01:00,45.3,42.8,30.00,SSW,202,3.8,3.8,91,0.00,,,0.00,0.00,VWS V14.01,2013-03-09 08:01:00,
2013-03-09 00:06:00,45.5,42.7,30.00,SSW,202,1.1,3.8,90,0.00,,,0.00,0.00,VWS V14.01,2013-03-09 08:06:00,
2013-03-09 00:11:00,45.7,42.6,30.00,SSW,202,2.0,3.8,89,0.00,,,0.00,0.00,VWS V14.01,2013-03-09 08:11:00,
2013-03-09 00:15:00,44.4,41.7,30.03,SSW,202,1.3,5.8,90,0.00,,,0.00,0.00,VWS V14.01,2013-03-09 08:15:00,
2013-03-09 00:16:00,46.9,43.6,30.00,SSE,158,3.4,5.6,88,0.00,,,0.00,0.00,VWS V14.01,2013-03-09 08:16:00,
2013-03-09 00:21:00,46.4,43.0,30.00,South,180,1.6,5.6,88,0.00,,,0.00,0.00,VWS V14.01,2013-03-09 08:21:00,
2013-03-09 00:27:00,46.6,42.9,30.00,SE,135,3.8,5.6,87,0.00,,,0.00,0.00,VWS V14.01,2013-03-09 08:27:00,
2013-03-09 00:30:00,43.7,41.8,30.03,SSW,202,2.5,3.1,93,0.00,,,0.00,0.00,VWS V14.01,2013-03-09 08:30:00,
2013-03-09 00:32:00,46.9,43.0,30.00,South,180,2.9,5.8,86,0.00,,,0.00,0.00,VWS V14.01,2013-03-09 08:32:00,
2013-03-09 00:37:00,46.6,42.6,30.00,SSW,202,0.0,5.8,86,0.00,,,0.00,0.00,VWS V14.01,2013-03-09 08:37:00,
2013-03-09 00:42:00,45.5,42.5,30.00,SSW,202,1.6,5.8,89,0.00,,,0.00,0.00,VWS V14.01,2013-03-09 08:42:00,
2013-03-09 00:45:00,43.7,42.4,30.03,South,180,0.0,3.1,95,0.00,,,0.00,0.00,VWS V14.01,2013-03-09 08:45:00,
2013-03-09 00:47:00,45.1,42.1,30.00,SSW,202,2.0,2.9,89,0.00,,,0.00,0.00,VWS V14.01,2013-03-09 08:47:00,
2013-03-09 00:52:00,44.8,42.3,30.00,South,180,3.4,3.4,91,0.00,,,0.08,0.00,VWS V14.01,2013-03-09 08:52:00,
2013-03-09 00:57:00,45.0,42.5,30.00,SSW,202,1.6,4.3,91,0.00,,,0.00,0.00,VWS V14.01,2013-03-09 08:57:00,
2013-03-09 01:00:00,43.9,42.5,30.03,SSW,202,0.0,3.6,95,0.00,,,0.00,0.00,VWS V14.01,2013-03-09 09:00:00,
2013-03-09 01:02:00,45.1,42.1,30.00,SSW,202,3.1,4.0,89,0.00,,,0.00,0.00,VWS V14.01,2013-03-09 09:02:00,
2013-03-09 01:07:00,45.3,42.3,30.00,SSW,202,0.0,5.8,89,0.00,,,0.00,0.00,VWS V14.01,2013-03-09 09:07:00,
2013-03-09 01:12:00,44.6,41.6,30.03,SSW,202,2.2,5.8,89,0.00,,,0.00,0.00,VWS V14.01,2013-03-09 09:12:00,
2013-03-09 01:15:00,44.2,43.4,30.03,SSW,202,0.0,2.9,97,0.00,,,0.00,0.00,VWS V14.01,2013-03-09 09:15:00,
2013-03-09 01:17:00,44.2,41.8,30.03,SSW,202,2.0,2.2,91,0.00,,,0.00,0.00,VWS V14.01,2013-03-09 09:17:00,
2013-03-09 01:22:00,44.1,41.9,30.03,South,180,0.0,2.5,92,0.00,,,0.00,0.00,VWS V14.01,2013-03-09 09:22:00,
2013-03-09 01:27:00,43.9,41.7,30.03,SSW,202,0.0,2.5,92,0.00,,,0.00,0.00,VWS V14.01,2013-03-09 09:27:00,
2013-03-09 01:30:00,44.1,43.3,30.03,South,180,0.0,2.7,97,0.00,,,0.00,0.00,VWS V14.01,2013-03-09 09:30:00,
2013-03-09 01:32:00,43.9,42.0,30.03,SSW,202,2.5,2.7,93,0.00,,,0.00,0.00,VWS V14.01,2013-03-09 09:32:00,
2013-03-09 01:37:00,43.7,42.1,30.03,South,180,0.0,3.1,94,0.00,,,0.00,0.00,VWS V14.01,2013-03-09 09:37:00,
2013-03-09 01:42:00,43.7,42.4,30.03,SSW,202,0.0,3.1,95,0.00,,,0.00,0.00,VWS V14.01,2013-03-09 09:42:00,
2013-03-09 01:45:00,43.3,42.5,30.00,South,180,0.0,0.0,97,0.00,,,0.00,0.00,VWS V14.01,2013-03-09 09:45:00,
2013-03-09 01:47:00,43.7,42.6,30.03,SSW,202,2.7,2.7,96,0.00,,,0.00,0.00,VWS V14.01,2013-03-09 09:47:00,
2013-03-09 01:52:00,44.1,43.0,30.03,SSW,202,2.7,3.6,96,0.00,,,0.00,0.00,VWS V14.01,2013-03-09 09:52:00,
2013-03-09 01:57:00,44.1,43.0,30.03,SSW,202,0.0,3.6,96,0.00,,,0.00,0.00,VWS V14.01,2013-03-09 09:57:00,
2013-03-09 02:00:00,43.0,42.5,30.00,South,180,0.0,0.0,98,0.00,,,0.00,0.00,VWS V14.01,2013-03-09 10:00:00,
2013-03-09 02:02:00,43.9,42.8,30.03,SSW,202,0.0,0.0,96,0.00,,,0.00,0.00,VWS V14.01,2013-03-09 10:02:00,
2013-03-09 02:07:00,43.9,43.1,30.03,South,180,0.0,2.5,97,0.00,,,0.00,0.00,VWS V14.01,2013-03-09 10:07:00,
2013-03-09 02:12:00,44.1,43.3,30.03,SSW,202,2.5,2.9,97,0.00,,,0.00,0.00,VWS V14.01,2013-03-09 10:12:00,
2013-03-09 02:15:00,42.6,42.4,30.03,South,180,0.0,0.0,99,0.00,,,0.00,0.00,VWS V14.01,2013-03-09 10:15:00,
2013-03-09 02:17:00,44.1,43.3,30.03,SSW,202,0.9,2.0,97,0.00,,,0.00,0.00,VWS V14.01,2013-03-09 10:17:00,
2013-03-09 02:22:00,44.1,43.3,30.03,SSW,202,2.2,2.7,97,0.00,,,0.00,0.00,VWS V14.01,2013-03-09 10:22:00,
2013-03-09 02:27:00,44.1,43.3,30.03,SSW,202,0.0,2.7,97,0.00,,,0.00,0.00,VWS V14.01,2013-03-09 10:27:00,
2013-03-09 02:30:00,42.3,42.3,30.03,SSW,202,0.0,0.0,100,0.00,,,0.00,0.00,VWS V14.01,2013-03-09 10:30:00,
2013-03-09 02:32:00,44.1,43.3,30.03,South,180,0.0,0.0,97,0.00,,,0.00,0.00,VWS V14.01,2013-03-09 10:32:00,
2013-03-09 02:37:00,43.9,43.1,30.00,South,180,0.0,0.0,97,0.00,,,0.00,0.00,VWS V14.01,2013-03-09 10:37:00,
2013-03-09 02:42:00,43.5,42.7,30.00,South,180,0.0,0.0,97,0.00,,,0.00,0.00,VWS V14.01,2013-03-09 10:42:00,
2013-03-09 02:45:00,42.3,42.3,30.03,SSW,202,0.0,0.0,100,0.00,,,0.00,0.00,VWS V14.01,2013-03-09 10:45:00,
2013-03-09 02:47:00,43.3,42.5,30.00,South,180,0.0,0.0,97,0.00,,,0.00,0.00,VWS V14.01,2013-03-09 10:47:00,
2013-03-09 02:52:00,43.2,42.4,30.00,South,180,0.0,0.0,97,0.00,,,0.00,0.00,VWS V14.01,2013-03-09 10:52:00,
2013-03-09 02:57:00,43.0,42.5,30.00,South,180,0.0,0.0,98,0.00,,,0.00,0.00,VWS V14.01,2013-03-09 10:57:00,
2013-03-09 03:00:00,42.4,42.4,30.03,SSW,202,0.0,0.0,100,0.00,,,0.00,0.00,VWS V14.01,2013-03-09 11:00:00,
2013-03-09 03:02:00,42.8,42.3,30.00,South,180,0.0,0.0,98,0.00,,,0.00,0.00,VWS V14.01,2013-03-09 11:02:00,
2013-03-09 03:07:00,42.8,42.5,30.03,South,180,0.0,0.0,99,0.00,,,0.00,0.00,VWS V14.01,2013-03-09 11:07:00,
2013-03-09 03:12:00,42.6,42.4,30.03,South,180,0.0,0.0,99,0.00,,,0.00,0.00,VWS V14.01,2013-03-09 11:12:00,
2013-03-09 03:15:00,42.6,42.6,30.03,South,180,0.0,0.0,100,0.00,,,0.00,0.00,VWS V14.01,2013-03-09 11:15:00,
2013-03-09 03:17:00,42.4,42.2,30.03,South,180,0.0,0.0,99,0.00,,,0.00,0.00,VWS V14.01,2013-03-09 11:17:00,
2013-03-09 03:22:00,42.4,42.4,30.03,South,180,0.0,0.0,100,0.00,,,0.00,0.00,VWS V14.01,2013-03-09 11:22:00,
2013-03-09 03:27:00,42.4,42.4,30.03,SSW,202,0.0,0.0,100,0.00,,,0.00,0.00,VWS V14.01,2013-03-09 11:27:00,
2013-03-09 03:30:00,42.6,42.6,30.03,SW,225,0.0,0.0,100,0.00,,,0.00,0.00,VWS V14.01,2013-03-09 11:30:00,
2013-03-09 03:32:00,42.3,42.3,30.03,SSW,202,0.0,0.0,100,0.00,,,0.00,0.00,VWS V14.01,2013-03-09 11:32:00,
2013-03-09 03:37:00,42.3,42.3,30.03,South,180,0.0,0.0,100,0.00,,,0.00,0.00,VWS V14.01,2013-03-09 11:37:00,
2013-03-09 03:42:00,42.3,42.3,30.03,SSW,202,0.0,0.0,100,0.00,,,0.00,0.00,VWS V14.01,2013-03-09 11:42:00,
2013-03-09 03:45:00,41.7,41.7,30.06,SSE,158,0.0,0.0,100,0.00,,,0.00,0.00,VWS V14.01,2013-03-09 11:45:00,
2013-03-09 03:48:00,42.3,42.3,30.03,SSW,202,0.0,0.0,100,0.00,,,0.00,0.00,VWS V14.01,2013-03-09 11:48:00,
2013-03-09 03:53:00,42.3,42.3,30.03,SSW,202,0.0,0.0,100,0.00,,,0.00,0.00,VWS V14.01,2013-03-09 11:53:00,
2013-03-09 03:58:00,42.4,42.4,30.03,South,180,0.0,0.0,100,0.00,,,0.00,0.00,VWS V14.01,2013-03-09 11:58:00,
2013-03-09 04:00:00,41.7,41.7,30.09,SSW,202,0.0,0.0,100,0.00,,,0.00,0.00,VWS V14.01,2013-03-09 12:00:00,
2013-03-09 04:03:00,42.4,42.4,30.03,SSW,202,0.0,0.0,100,0.00,,,0.00,0.00,VWS V14.01,2013-03-09 12:03:00,
2013-03-09 04:08:00,42.4,42.4,30.03,SSW,202,0.0,0.0,100,0.00,,,0.00,0.00,VWS V14.01,2013-03-09 12:08:00,
2013-03-09 04:13:00,42.4,42.4,30.03,South,180,0.0,0.0,100,0.00,,,0.00,0.00,VWS V14.01,2013-03-09 12:13:00,
2013-03-09 04:15:00,41.9,41.9,30.09,SSW,202,0.0,0.0,100,0.00,,,0.00,0.00,VWS V14.01,2013-03-09 12:15:00,
2013-03-09 04:18:00,42.6,42.6,30.03,South,180,0.0,0.0,100,0.00,,,0.00,0.00,VWS V14.01,2013-03-09 12:18:00,
2013-03-09 04:23:00,42.8,42.8,30.03,South,180,0.0,0.0,100,0.00,,,0.00,0.00,VWS V14.01,2013-03-09 12:23:00,
2013-03-09 04:28:00,42.8,42.8,30.03,SW,225,0.0,0.0,100,0.00,,,0.00,0.00,VWS V14.01,2013-03-09 12:28:00,
2013-03-09 04:30:00,41.5,41.5,30.09,South,180,1.6,2.7,100,0.00,,,0.00,0.00,VWS V14.01,2013-03-09 12:30:00,
2013-03-09 04:33:00,42.4,42.4,30.03,West,270,0.0,0.0,100,0.00,,,0.00,0.00,VWS V14.01,2013-03-09 12:33:00,
2013-03-09 04:38:00,42.3,42.3,30.06,West,270,0.0,0.0,100,0.00,,,0.00,0.00,VWS V14.01,2013-03-09 12:38:00,
2013-03-09 04:43:00,41.7,41.7,30.06,SSE,158,0.0,0.0,100,0.00,,,0.00,0.00,VWS V14.01,2013-03-09 12:43:00,
2013-03-09 04:45:00,42.1,42.1,30.09,SSW,202,2.0,2.9,100,0.00,,,0.00,0.00,VWS V14.01,2013-03-09 12:45:00,
2013-03-09 04:48:00,41.7,41.7,30.06,SSE,158,0.0,0.0,100,0.00,,,0.00,0.00,VWS V14.01,2013-03-09 12:48:00,
2013-03-09 04:53:00,41.7,41.7,30.09,SSW,202,0.0,0.0,100,0.00,,,0.00,0.00,VWS V14.01,2013-03-09 12:53:00,
2013-03-09 04:58:00,41.7,41.7,30.09,SSW,202,0.0,0.0,100,0.00,,,0.00,0.00,VWS V14.01,2013-03-09 12:58:00,
2013-03-09 05:00:00,42.1,42.1,30.09,SSW,202,1.3,2.5,100,0.00,,,0.00,0.00,VWS V14.01,2013-03-09 13:00:00,
2013-03-09 05:03:00,41.7,41.7,30.09,SSW,202,0.0,0.0,100,0.00,,,0.00,0.00,VWS V14.01,2013-03-09 13:03:00,
2013-03-09 05:08:00,41.7,41.7,30.09,SSW,202,0.0,0.0,100,0.00,,,0.00,0.00,VWS V14.01,2013-03-09 13:08:00,
2013-03-09 05:13:00,41.9,41.9,30.09,SW,225,0.0,0.0,100,0.00,,,0.00,0.00,VWS V14.01,2013-03-09 13:13:00,
2013-03-09 05:15:00,42.3,42.3,30.09,South,180,2.5,3.4,100,0.00,,,0.00,0.00,VWS V14.01,2013-03-09 13:15:00,
2013-03-09 05:18:00,41.9,41.9,30.09,SSW,202,0.0,0.0,100,0.00,,,0.00,0.00,VWS V14.01,2013-03-09 13:18:00,
2013-03-09 05:23:00,41.9,41.9,30.09,SSW,202,0.0,0.0,100,0.00,,,0.00,0.00,VWS V14.01,2013-03-09 13:23:00,
2013-03-09 05:28:00,41.7,41.7,30.09,SSW,202,2.2,2.2,100,0.00,,,0.00,0.00,VWS V14.01,2013-03-09 13:28:00,
2013-03-09 05:30:00,42.4,42.4,30.12,SSW,202,2.5,3.4,100,0.00,,,0.00,0.00,VWS V14.01,2013-03-09 13:30:00,
2013-03-09 05:33:00,41.5,41.5,30.09,South,180,0.0,1.6,100,0.00,,,0.00,0.00,VWS V14.01,2013-03-09 13:33:00,
2013-03-09 05:38:00,41.5,41.5,30.09,SSW,202,0.0,1.6,100,0.00,,,0.00,0.00,VWS V14.01,2013-03-09 13:38:00,
2013-03-09 05:43:00,41.7,41.7,30.09,SSW,202,2.7,2.9,100,0.00,,,0.00,0.00,VWS V14.01,2013-03-09 13:43:00,
2013-03-09 05:45:00,43.0,43.0,30.15,SSE,158,0.0,3.1,100,0.00,,,0.00,0.00,VWS V14.01,2013-03-09 13:45:00,
2013-03-09 05:48:00,42.1,42.1,30.09,SSW,202,2.0,2.5,100,0.00,,,0.00,0.00,VWS V14.01,2013-03-09 13:48:00,
2013-03-09 05:53:00,42.1,42.1,30.09,SSW,202,2.2,2.5,100,0.00,,,0.00,0.00,VWS V14.01,2013-03-09 13:53:00,
2013-03-09 05:58:00,42.1,42.1,30.09,SSW,202,2.5,2.5,100,0.00,,,0.00,0.00,VWS V14.01,2013-03-09 13:58:00,
2013-03-09 06:00:00,42.8,42.8,30.15,SSW,202,0.0,0.0,100,0.00,,,0.00,0.00,VWS V14.01,2013-03-09 14:00:00,
2013-03-09 06:03:00,42.3,42.3,30.09,SSW,202,2.7,2.7,100,0.00,,,0.00,0.00,VWS V14.01,2013-03-09 14:03:00,
2013-03-09 06:08:00,42.4,42.4,30.09,South,180,1.3,3.4,100,0.00,,,0.00,0.00,VWS V14.01,2013-03-09 14:08:00,
2013-03-09 06:13:00,42.3,42.3,30.09,SSW,202,2.7,3.4,100,0.00,,,0.00,0.00,VWS V14.01,2013-03-09 14:13:00,
2013-03-09 06:15:00,43.3,43.3,30.18,South,180,1.1,2.9,100,0.00,,,0.00,0.00,VWS V14.01,2013-03-09 14:15:00,
2013-03-09 06:18:00,42.6,42.6,30.09,SSW,202,2.7,3.4,100,0.00,,,0.00,0.00,VWS V14.01,2013-03-09 14:18:00,
2013-03-09 06:23:00,42.6,42.6,30.12,SSW,202,2.0,3.4,100,0.00,,,0.00,0.00,VWS V14.01,2013-03-09 14:23:00,
2013-03-09 06:28:00,42.4,42.4,30.12,SSW,202,2.2,3.4,100,0.00,,,0.00,0.00,VWS V14.01,2013-03-09 14:28:00,
2013-03-09 06:30:00,43.3,43.3,30.18,South,180,0.0,2.5,100,0.00,,,0.00,0.00,VWS V14.01,2013-03-09 14:30:00,
2013-03-09 06:33:00,42.6,42.6,30.12,SSW,202,0.0,2.7,100,0.00,,,0.00,0.00,VWS V14.01,2013-03-09 14:33:00,
2013-03-09 06:38:00,43.0,43.0,30.15,SSW,202,2.5,3.1,100,0.00,,,0.00,0.00,VWS V14.01,2013-03-09 14:38:00,
2013-03-09 06:43:00,43.2,43.2,30.15,SSE,158,0.0,3.1,100,0.00,,,0.00,0.00,VWS V14.01,2013-03-09 14:43:00,
2013-03-09 06:45:00,44.2,44.0,30.18,South,180,0.0,2.2,99,0.00,,,0.00,0.00,VWS V14.01,2013-03-09 14:45:00,
2013-03-09 06:48:00,42.8,42.8,30.15,SSE,158,0.0,0.0,100,0.00,,,0.00,0.00,VWS V14.01,2013-03-09 14:48:00,
2013-03-09 06:53:00,42.8,42.8,30.15,SSW,202,0.0,0.0,100,0.00,,,0.00,0.00,VWS V14.01,2013-03-09 14:53:00,
2013-03-09 06:58:00,42.8,42.8,30.15,South,180,0.0,0.0,100,0.00,,,0.00,0.00,VWS V14.01,2013-03-09 14:58:00,
2013-03-09 07:00:00,45.3,44.5,30.18,South,180,0.0,0.0,97,0.00,,,0.00,0.00,VWS V14.01,2013-03-09 15:00:00,
2013-03-09 07:03:00,43.0,43.0,30.15,SSW,202,0.0,2.9,100,0.00,,,0.00,0.00,VWS V14.01,2013-03-09 15:03:00,
2013-03-09 07:08:00,43.2,43.2,30.18,SSW,202,0.0,2.9,100,0.00,,,0.00,0.00,VWS V14.01,2013-03-09 15:08:00,
2013-03-09 07:13:00,43.3,43.3,30.18,SSW,202,0.0,2.9,100,0.00,,,0.00,0.00,VWS V14.01,2013-03-09 15:13:00,
2013-03-09 07:15:00,46.6,45.0,30.18,SSE,158,0.0,2.5,94,0.00,,,0.00,0.00,VWS V14.01,2013-03-09 15:15:00,
2013-03-09 07:18:00,43.3,43.3,30.18,South,180,0.0,2.5,100,0.00,,,0.00,0.00,VWS V14.01,2013-03-09 15:18:00,
2013-03-09 07:23:00,43.3,43.3,30.18,South,180,0.0,2.5,100,0.00,,,0.00,0.00,VWS V14.01,2013-03-09 15:23:00,
2013-03-09 07:28:00,43.3,43.3,30.18,South,180,0.0,2.5,100,0.00,,,0.00,0.00,VWS V14.01,2013-03-09 15:28:00,
2013-03-09 07:30:00,48.6,45.2,30.18,SSE,158,0.0,0.0,88,0.00,,,0.00,0.00,VWS V14.01,2013-03-09 15:30:00,
2013-03-09 07:33:00,43.5,43.5,30.18,South,180,0.0,2.2,100,0.00,,,0.00,0.00,VWS V14.01,2013-03-09 15:33:00,
2013-03-09 07:38:00,43.7,43.7,30.18,South,180,0.0,2.2,100,0.00,,,0.00,0.00,VWS V14.01,2013-03-09 15:38:00,
2013-03-09 07:43:00,44.1,43.8,30.18,South,180,0.0,2.2,99,0.00,,,0.00,0.00,VWS V14.01,2013-03-09 15:43:00,
2013-03-09 07:45:00,50.9,46.9,30.21,ESE,112,0.0,3.4,86,0.00,,,0.00,0.00,VWS V14.01,2013-03-09 15:45:00,
2013-03-09 07:48:00,44.6,44.1,30.18,South,180,0.0,0.0,98,0.00,,,0.00,0.00,VWS V14.01,2013-03-09 15:48:00,
2013-03-09 07:53:00,45.1,44.6,30.18,South,180,0.0,0.0,98,0.00,,,0.00,0.00,VWS V14.01,2013-03-09 15:53:00,
2013-03-09 07:58:00,45.3,44.8,30.18,South,180,0.0,0.0,98,0.00,,,0.00,0.00,VWS V14.01,2013-03-09 15:58:00,
2013-03-09 08:00:00,52.0,45.7,30.24,ESE,112,0.0,4.0,79,0.00,,,0.00,0.00,VWS V14.01,2013-03-09 16:00:00,
2013-03-09 08:03:00,45.5,44.7,30.18,South,180,0.0,0.0,97,0.00,,,0.00,0.00,VWS V14.01,2013-03-09 16:03:00,
2013-03-09 08:08:00,46.0,44.7,30.18,South,180,0.0,2.5,95,0.00,,,0.00,0.00,VWS V14.01,2013-03-09 16:08:00,
2013-03-09 08:13:00,46.4,45.0,30.18,SSE,158,0.0,2.5,95,0.00,,,0.00,0.00,VWS V14.01,2013-03-09 16:13:00,
2013-03-09 08:15:00,53.2,46.2,30.24,East,90,0.0,0.0,77,0.00,,,0.00,0.00,VWS V14.01,2013-03-09 16:15:00,
2013-03-09 08:19:00,47.3,45.4,30.18,SSE,158,0.0,0.0,93,0.00,,,0.00,0.00,VWS V14.01,2013-03-09 16:19:00,
2013-03-09 08:24:00,48.0,45.5,30.18,SSE,158,0.0,0.0,91,0.00,,,0.00,0.00,VWS V14.01,2013-03-09 16:24:00,
2013-03-09 08:29:00,48.4,45.0,30.18,SSE,158,0.0,0.0,88,0.00,,,0.00,0.00,VWS V14.01,2013-03-09 16:29:00,
2013-03-09 08:30:00,54.0,45.5,30.27,ENE,68,0.0,0.0,73,0.00,,,0.00,0.00,VWS V14.01,2013-03-09 16:30:00,
2013-03-09 08:34:00,49.3,45.9,30.18,SSE,158,0.0,0.0,88,0.00,,,0.00,0.00,VWS V14.01,2013-03-09 16:34:00,
2013-03-09 08:39:00,49.8,45.5,30.21,ESE,112,2.2,2.7,85,0.00,,,0.00,0.00,VWS V14.01,2013-03-09 16:39:00,
2013-03-09 08:44:00,50.7,46.7,30.21,East,90,0.0,3.4,86,0.00,,,0.00,0.00,VWS V14.01,2013-03-09 16:44:00,
2013-03-09 08:45:00,55.4,46.9,30.27,NE,45,3.4,5.6,73,0.00,,,0.00,0.00,VWS V14.01,2013-03-09 16:45:00,
2013-03-09 08:49:00,51.4,46.5,30.21,ENE,68,2.9,4.0,83,0.00,,,0.00,0.00,VWS V14.01,2013-03-09 16:49:00,
2013-03-09 08:54:00,52.0,46.7,30.24,SE,135,0.0,4.0,82,0.00,,,0.00,0.00,VWS V14.01,2013-03-09 16:54:00,
2013-03-09 08:59:00,52.0,45.7,30.24,ESE,112,0.0,4.0,79,0.00,,,0.00,0.00,VWS V14.01,2013-03-09 16:59:00,
2013-03-09 09:00:00,55.8,46.5,30.27,NE,45,3.1,5.4,71,0.00,,,0.00,0.00,VWS V14.01,2013-03-09 17:00:00,
2013-03-09 09:04:00,52.2,45.8,30.24,ESE,112,0.0,0.0,79,0.00,,,0.00,0.00,VWS V14.01,2013-03-09 17:04:00,
2013-03-09 09:09:00,52.9,45.5,30.24,East,90,0.0,0.0,76,0.00,,,0.00,0.00,VWS V14.01,2013-03-09 17:09:00,
2013-03-09 09:14:00,53.1,46.0,30.24,East,90,0.0,0.0,77,0.00,,,0.00,0.00,VWS V14.01,2013-03-09 17:14:00,
2013-03-09 09:15:00,56.7,47.0,30.27,NNE,22,3.8,5.8,70,0.00,,,0.00,0.00,VWS V14.01,2013-03-09 17:15:00,
2013-03-09 09:19:00,52.9,45.2,30.24,East,90,0.0,0.0,75,0.00,,,0.00,0.00,VWS V14.01,2013-03-09 17:19:00,
2013-03-09 09:24:00,54.0,46.6,30.27,East,90,0.0,0.0,76,0.00,,,0.00,0.00,VWS V14.01,2013-03-09 17:24:00,
2013-03-09 09:29:00,53.6,45.2,30.27,ENE,68,0.0,0.0,73,0.00,,,0.00,0.00,VWS V14.01,2013-03-09 17:29:00,
2013-03-09 09:30:00,57.0,47.0,30.27,NE,45,2.7,6.0,69,0.00,,,0.00,0.00,VWS V14.01,2013-03-09 17:30:00,
2013-03-09 09:34:00,54.5,46.4,30.27,NE,45,0.0,2.5,74,0.00,,,0.00,0.00,VWS V14.01,2013-03-09 17:34:00,
2013-03-09 09:39:00,54.9,46.0,30.27,ENE,68,0.0,5.6,72,0.00,,,0.00,0.00,VWS V14.01,2013-03-09 17:39:00,
2013-03-09 09:44:00,55.4,46.9,30.27,NE,45,0.0,5.6,73,0.00,,,0.00,0.00,VWS V14.01,2013-03-09 17:44:00,
2013-03-09 09:45:00,57.6,47.1,30.27,NNE,22,5.6,6.0,68,0.00,,,0.00,0.00,VWS V14.01,2013-03-09 17:45:00,
2013-03-09 09:49:00,55.9,46.7,30.27,NNE,22,3.1,5.4,71,0.00,,,0.00,0.00,VWS V14.01,2013-03-09 17:49:00,
2013-03-09 09:54:00,55.4,45.0,30.27,North,0,3.8,5.4,68,0.00,,,0.00,0.00,VWS V14.01,2013-03-09 17:54:00,
2013-03-09 09:59:00,55.6,46.0,30.27,NE,45,2.9,5.4,70,0.00,,,0.00,0.00,VWS V14.01,2013-03-09 17:59:00,
2013-03-09 10:00:00,59.0,48.1,30.24,East,90,2.7,5.8,67,0.00,,,0.00,0.00,VWS V14.01,2013-03-09 18:00:00,
2013-03-09 10:04:00,55.6,46.0,30.27,NNW,338,2.7,5.8,70,0.00,,,0.00,0.00,VWS V14.01,2013-03-09 18:04:00,
2013-03-09 10:09:00,55.9,46.3,30.27,NE,45,2.0,5.8,70,0.00,,,0.00,0.00,VWS V14.01,2013-03-09 18:09:00,
2013-03-09 10:14:00,56.7,47.0,30.27,NE,45,1.6,5.8,70,0.00,,,0.00,0.00,VWS V14.01,2013-03-09 18:14:00,
2013-03-09 10:15:00,59.9,47.3,30.24,ENE,68,4.0,6.5,63,0.00,,,0.00,0.00,VWS V14.01,2013-03-09 18:15:00,
2013-03-09 10:19:00,56.7,47.0,30.27,ENE,68,3.4,4.0,70,0.00,,,0.00,0.00,VWS V14.01,2013-03-09 18:19:00,
2013-03-09 10:24:00,56.8,47.2,30.27,East,90,0.0,6.0,70,0.00,,,0.00,0.00,VWS V14.01,2013-03-09 18:24:00,
2013-03-09 10:29:00,57.0,47.0,30.27,North,0,3.6,6.0,69,0.00,,,0.00,0.00,VWS V14.01,2013-03-09 18:29:00,
2013-03-09 10:30:00,61.3,46.9,30.24,East,90,0.0,4.3,59,0.00,,,0.00,0.00,VWS V14.01,2013-03-09 18:30:00,
2013-03-09 10:34:00,56.8,46.8,30.27,SE,135,0.0,4.7,69,0.00,,,0.00,0.00,VWS V14.01,2013-03-09 18:34:00,
2013-03-09 10:39:00,57.4,46.9,30.27,ENE,68,0.0,4.7,68,0.00,,,0.00,0.00,VWS V14.01,2013-03-09 18:39:00,
2013-03-09 10:44:00,57.7,47.3,30.27,NNE,22,4.0,6.0,68,0.00,,,0.00,0.00,VWS V14.01,2013-03-09 18:44:00,
2013-03-09 10:45:00,62.4,45.1,30.24,ESE,112,2.7,5.8,53,0.00,,,0.00,0.00,VWS V14.01,2013-03-09 18:45:00,
2013-03-09 10:49:00,58.3,48.2,30.27,ENE,68,3.4,5.6,69,0.00,,,0.00,0.00,VWS V14.01,2013-03-09 18:49:00,
2013-03-09 10:54:00,57.7,47.3,30.24,NE,45,2.2,5.8,68,0.00,,,0.00,0.00,VWS V14.01,2013-03-09 18:54:00,
2013-03-09 10:59:00,58.5,48.0,30.24,East,90,2.0,5.8,68,0.00,,,0.00,0.00,VWS V14.01,2013-03-09 18:59:00,
2013-03-09 11:00:00,63.0,44.6,30.24,ENE,68,0.0,4.9,51,0.00,,,0.00,0.00,VWS V14.01,2013-03-09 19:00:00,
2013-03-09 11:04:00,58.6,45.7,30.24,SE,135,4.0,6.5,62,0.00,,,0.00,0.00,VWS V14.01,2013-03-09 19:04:00,
2013-03-09 11:09:00,59.5,46.5,30.24,East,90,3.1,6.5,62,0.00,,,0.00,0.00,VWS V14.01,2013-03-09 19:09:00,
2013-03-09 11:14:00,59.9,47.3,30.24,NE,45,3.8,6.5,63,0.00,,,0.00,0.00,VWS V14.01,2013-03-09 19:14:00,
2013-03-09 11:15:00,61.7,43.9,30.24,SSE,158,6.0,9.6,52,0.00,,,0.00,0.00,VWS V14.01,2013-03-09 19:15:00,
2013-03-09 11:19:00,60.4,46.5,30.24,NE,45,2.9,4.0,60,0.00,,,0.00,0.00,VWS V14.01,2013-03-09 19:19:00,
2013-03-09 11:24:00,60.1,45.7,30.24,NE,45,2.5,4.0,59,0.00,,,0.00,0.00,VWS V14.01,2013-03-09 19:24:00,
2013-03-09 11:29:00,61.3,46.9,30.24,East,90,0.0,4.3,59,0.00,,,0.00,0.00,VWS V14.01,2013-03-09 19:29:00,
2013-03-09 11:30:00,60.8,44.5,30.24,SSW,202,6.9,10.3,55,0.00,,,0.00,0.00,VWS V14.01,2013-03-09 19:30:00,
2013-03-09 11:34:00,62.2,44.4,30.24,SE,135,2.0,4.0,52,0.00,,,0.00,0.00,VWS V14.01,2013-03-09 19:34:00,
2013-03-09 11:39:00,63.0,44.6,30.24,ESE,112,2.2,4.0,51,0.00,,,0.00,0.00,VWS V14.01,2013-03-09 19:39:00,
2013-03-09 11:44:00,62.2,45.4,30.24,East,90,1.6,5.8,54,0.00,,,0.00,0.00,VWS V14.01,2013-03-09 19:44:00,
2013-03-09 11:45:00,59.4,44.1,30.24,SSE,158,5.4,15.4,57,0.00,,,0.00,0.00,VWS V14.01,2013-03-09 19:45:00,
2013-03-09 11:49:00,62.8,43.9,30.24,NE,45,3.8,4.0,50,0.00,,,0.00,0.00,VWS V14.01,2013-03-09 19:49:00,
2013-03-09 11:55:00,62.6,44.8,30.24,ESE,112,0.0,4.9,52,0.00,,,0.00,0.00,VWS V14.01,2013-03-09 19:55:00,
2013-03-09 12:00:00,63.0,44.6,30.24,ENE,68,0.0,4.9,51,0.00,,,0.00,0.00,VWS V14.01,2013-03-09 20:00:00,
2013-03-09 12:05:00,63.3,43.8,30.24,East,90,2.9,3.6,49,0.00,,,0.00,0.00,VWS V14.01,2013-03-09 20:05:00,
2013-03-09 12:10:00,63.1,43.2,30.24,SE,135,0.0,3.6,48,0.00,,,0.00,0.00,VWS V14.01,2013-03-09 20:10:00,
2013-03-09 12:15:00,61.7,43.9,30.24,SSW,202,7.6,7.6,52,0.00,,,0.00,0.00,VWS V14.01,2013-03-09 20:15:00,
2013-03-09 12:20:00,60.6,44.4,30.24,SSW,202,10.3,10.3,55,0.00,,,0.00,0.00,VWS V14.01,2013-03-09 20:20:00,
2013-03-09 12:25:00,60.4,44.7,30.24,SW,225,9.2,10.3,56,0.00,,,0.00,0.00,VWS V14.01,2013-03-09 20:25:00,
2013-03-09 12:30:00,60.8,45.0,30.24,South,180,4.3,6.9,56,0.00,,,0.00,0.00,VWS V14.01,2013-03-09 20:30:00,
2013-03-09 12:35:00,59.9,45.1,30.24,South,180,9.8,15.4,58,0.00,,,0.00,0.00,VWS V14.01,2013-03-09 20:35:00,
2013-03-09 12:40:00,59.2,44.0,30.24,WSW,248,5.8,15.4,57,0.00,,,0.00,0.00,VWS V14.01,2013-03-09 20:40:00,
2013-03-09 12:45:00,59.5,44.3,30.24,South,180,10.5,10.5,57,0.00,,,0.00,0.00,VWS V14.01,2013-03-09 20:45:00,
2013-03-09 12:50:00,59.9,43.2,30.24,SW,225,3.8,12.8,54,0.00,,,0.00,0.00,VWS V14.01,2013-03-09 20:50:00,
2013-03-09 12:55:00,58.8,44.5,30.24,South,180,10.1,13.2,59,0.00,,,0.00,0.00,VWS V14.01,2013-03-09 20:55:00,
2013-03-09 13:00:00,59.0,44.7,30.24,SSW,202,10.3,11.2,59,0.00,,,0.00,0.00,VWS V14.01,2013-03-09 21:00:00,
2013-03-09 13:05:00,59.2,44.4,30.24,SW,225,8.1,12.3,58,0.00,,,0.00,0.00,VWS V14.01,2013-03-09 21:05:00,
2013-03-09 13:10:00,59.5,43.8,30.24,SSW,202,7.8,13.0,56,0.00,,,0.00,0.00,VWS V14.01,2013-03-09 21:10:00,
2013-03-09 13:15:00,60.1,43.4,30.24,South,180,8.1,8.1,54,0.00,,,0.00,0.00,VWS V14.01,2013-03-09 21:15:00,
2013-03-09 13:20:00,60.3,44.5,30.24,SSW,202,10.3,11.0,56,0.00,,,0.00,0.00,VWS V14.01,2013-03-09 21:20:00,
2013-03-09 13:25:00,60.8,45.0,30.24,SSE,158,4.0,11.0,56,0.00,,,0.00,0.00,VWS V14.01,2013-03-09 21:25:00,
2013-03-09 13:30:00,61.5,45.2,30.24,SSE,158,7.4,7.4,55,0.00,,,0.00,0.00,VWS V14.01,2013-03-09 21:30:00,
2013-03-09 13:35:00,61.7,44.9,30.24,SSW,202,8.7,10.7,54,0.00,,,0.00,0.00,VWS V14.01,2013-03-09 21:35:00,
2013-03-09 13:40:00,61.9,43.6,30.21,SW,225,6.3,10.7,51,0.00,,,0.00,0.00,VWS V14.01,2013-03-09 21:40:00,
2013-03-09 13:45:00,62.4,44.6,30.21,SSE,158,7.6,10.7,52,0.00,,,0.00,0.00,VWS V14.01,2013-03-09 21:45:00,
2013-03-09 13:50:00,63.1,44.2,30.21,SE,135,4.3,10.7,50,0.00,,,0.00,0.00,VWS V14.01,2013-03-09 21:50:00,
2013-03-09 13:55:00,63.5,44.0,30.21,SSW,202,1.3,14.1,49,0.00,,,0.00,0.00,VWS V14.01,2013-03-09 21:55:00,
2013-03-09 14:00:00,63.7,43.1,30.21,SE,135,5.4,10.3,47,0.00,,,0.00,0.00,VWS V14.01,2013-03-09 22:00:00,
2013-03-09 14:05:00,64.4,43.2,30.21,SE,135,4.0,10.3,46,0.00,,,0.00,0.00,VWS V14.01,2013-03-09 22:05:00,
2013-03-09 14:11:00,64.9,43.7,30.21,SSE,158,5.8,10.3,46,0.00,,,0.00,0.00,VWS V14.01,2013-03-09 22:11:00,
2013-03-09 14:15:00,65.8,46.7,30.24,South,180,2.0,6.5,50,0.00,,,0.00,0.00,VWS V14.01,2013-03-09 22:15:00,
2013-03-09 14:16:00,65.1,43.8,30.21,SE,135,3.4,6.3,46,0.00,,,0.00,0.00,VWS V14.01,2013-03-09 22:16:00,
2013-03-09 14:21:00,65.5,44.7,30.21,SE,135,3.6,6.3,47,0.00,,,0.00,0.00,VWS V14.01,2013-03-09 22:21:00,
2013-03-09 14:26:00,66.0,44.7,30.21,SE,135,3.6,6.3,46,0.00,,,0.00,0.00,VWS V14.01,2013-03-09 22:26:00,
2013-03-09 14:30:00,66.2,48.1,30.24,SSW,202,3.8,5.4,52,0.00,,,0.00,0.00,VWS V14.01,2013-03-09 22:30:00,
2013-03-09 14:31:00,66.7,45.3,30.21,SSW,202,4.0,5.8,46,0.00,,,0.00,0.00,VWS V14.01,2013-03-09 22:31:00,
2013-03-09 14:36:00,66.9,44.9,30.21,West,270,3.4,6.3,45,0.00,,,0.00,0.00,VWS V14.01,2013-03-09 22:36:00,
2013-03-09 14:41:00,66.0,46.3,30.24,SSE,158,5.4,6.9,49,0.00,,,0.00,0.00,VWS V14.01,2013-03-09 22:41:00,
2013-03-09 14:45:00,65.1,48.6,30.21,SSW,202,0.0,4.0,55,0.00,,,0.00,0.00,VWS V14.01,2013-03-09 22:45:00,
2013-03-09 14:46:00,65.5,45.8,30.24,SE,135,6.0,6.3,49,0.00,,,0.00,0.00,VWS V14.01,2013-03-09 22:46:00,
2013-03-09 14:51:00,65.7,46.5,30.24,SSW,202,5.8,6.3,50,0.00,,,0.00,0.00,VWS V14.01,2013-03-09 22:51:00,
2013-03-09 14:56:00,64.6,45.5,30.24,South,180,5.4,10.3,50,0.00,,,0.00,0.00,VWS V14.01,2013-03-09 22:56:00,
2013-03-09 15:00:00,64.8,46.2,30.24,East,90,1.3,5.4,51,0.00,,,0.00,0.00,VWS V14.01,2013-03-09 23:00:00,
2013-03-09 15:01:00,65.1,45.5,30.24,SSW,202,6.5,6.5,49,0.00,,,0.00,0.00,VWS V14.01,2013-03-09 23:01:00,
2013-03-09 15:06:00,65.3,46.7,30.24,SSW,202,3.1,6.5,51,0.00,,,0.00,0.00,VWS V14.01,2013-03-09 23:06:00,
2013-03-09 15:11:00,66.0,46.9,30.24,SW,225,3.6,6.5,50,0.00,,,0.00,0.00,VWS V14.01,2013-03-09 23:11:00,
2013-03-09 15:15:00,63.0,43.0,30.24,SSW,202,2.5,5.8,48,0.00,,,0.00,0.00,VWS V14.01,2013-03-09 23:15:00,
2013-03-09 15:16:00,66.0,46.9,30.24,SE,135,0.0,4.0,50,0.00,,,0.00,0.00,VWS V14.01,2013-03-09 23:16:00,
2013-03-09 15:21:00,66.9,48.2,30.24,SSW,202,2.7,4.0,51,0.00,,,0.00,0.00,VWS V14.01,2013-03-09 23:21:00,
2013-03-09 15:26:00,66.7,48.1,30.24,SSW,202,5.4,5.4,51,0.00,,,0.00,0.00,VWS V14.01,2013-03-09 23:26:00,
2013-03-09 15:30:00,61.7,42.4,30.24,SSW,202,1.6,3.1,49,0.00,,,0.00,0.00,VWS V14.01,2013-03-09 23:30:00,
2013-03-09 15:31:00,65.8,47.2,30.24,SE,135,3.6,4.0,51,0.00,,,0.00,0.00,VWS V14.01,2013-03-09 23:31:00,
2013-03-09 15:36:00,66.0,47.9,30.24,SSW,202,0.0,4.0,52,0.00,,,0.00,0.00,VWS V14.01,2013-03-09 23:36:00,
2013-03-09 15:41:00,65.5,48.9,30.21,SSW,202,0.0,4.0,55,0.00,,,0.00,0.00,VWS V14.01,2013-03-09 23:41:00,
2013-03-09 15:45:00,61.0,42.7,30.24,SSW,202,2.0,3.8,51,0.00,,,0.00,0.00,VWS V14.01,2013-03-09 23:45:00,
2013-03-09 15:46:00,65.3,48.7,30.21,SSW,202,0.0,0.0,55,0.00,,,0.00,0.00,VWS V14.01,2013-03-09 23:46:00,
2013-03-09 15:51:00,65.7,46.5,30.21,East,90,5.4,5.4,50,0.00,,,0.00,0.00,VWS V14.01,2013-03-09 23:51:00,
2013-03-09 15:56:00,65.5,46.9,30.24,SW,225,0.0,5.4,51,0.00,,,0.00,0.00,VWS V14.01,2013-03-09 23:56:00,
2013-03-09 16:00:00,59.9,44.2,30.24,SSW,202,0.0,3.6,56,0.00,,,0.00,0.00,VWS V14.01,2013-03-10 00:00:00,
2013-03-09 16:01:00,65.1,45.5,30.24,SSW,202,5.8,5.8,49,0.00,,,0.00,0.00,VWS V14.01,2013-03-10 00:01:00,
2013-03-09 16:06:00,63.9,43.8,30.24,WSW,248,0.9,5.8,48,0.00,,,0.00,0.00,VWS V14.01,2013-03-10 00:06:00,
2013-03-09 16:11:00,63.5,43.5,30.24,SE,135,0.0,5.8,48,0.00,,,0.00,0.00,VWS V14.01,2013-03-10 00:11:00,
2013-03-09 16:15:00,60.6,43.4,30.24,SSW,202,0.0,4.3,53,0.00,,,0.00,0.00,VWS V14.01,2013-03-10 00:15:00,
2013-03-09 16:16:00,62.6,42.7,30.24,South,180,0.9,2.7,48,0.00,,,0.00,0.00,VWS V14.01,2013-03-10 00:16:00,
2013-03-09 16:21:00,62.8,42.8,30.24,SSW,202,2.5,3.1,48,0.00,,,0.00,0.00,VWS V14.01,2013-03-10 00:21:00,
2013-03-09 16:26:00,61.7,41.8,30.24,SW,225,2.7,3.1,48,0.00,,,0.00,0.00,VWS V14.01,2013-03-10 00:26:00,
2013-03-09 16:30:00,59.0,43.8,30.24,SSW,202,3.1,3.6,57,0.00,,,0.00,0.00,VWS V14.01,2013-03-10 00:30:00,
2013-03-09 16:31:00,61.3,42.6,30.24,SSW,202,1.6,1.6,50,0.00,,,0.00,0.00,VWS V14.01,2013-03-10 00:31:00,
2013-03-09 16:36:00,61.0,41.7,30.24,SW,225,1.6,2.0,49,0.00,,,0.00,0.00,VWS V14.01,2013-03-10 00:36:00,
2013-03-09 16:41:00,60.6,42.4,30.24,SW,225,2.7,3.4,51,0.00,,,0.00,0.00,VWS V14.01,2013-03-10 00:41:00,
2013-03-09 16:45:00,59.0,43.3,30.24,SSW,202,3.1,4.3,56,0.00,,,0.00,0.00,VWS V14.01,2013-03-10 00:45:00,
2013-03-09 16:46:00,60.8,43.1,30.24,SSW,202,2.0,2.9,52,0.00,,,0.00,0.00,VWS V14.01,2013-03-10 00:46:00,
2013-03-09 16:51:00,60.3,43.1,30.24,SSW,202,2.0,3.6,53,0.00,,,0.00,0.00,VWS V14.01,2013-03-10 00:51:00,
2013-03-09 16:56:00,60.3,44.0,30.24,SSW,202,2.5,3.6,55,0.00,,,0.00,0.00,VWS V14.01,2013-03-10 00:56:00,
2013-03-09 17:00:00,58.3,44.9,30.24,SW,225,1.6,3.8,61,0.00,,,0.00,0.00,VWS V14.01,2013-03-10 01:00:00,
2013-03-09 17:01:00,59.7,44.0,30.24,South,180,0.9,0.9,56,0.00,,,0.00,0.00,VWS V14.01,2013-03-10 01:01:00,
2013-03-09 17:06:00,59.7,43.5,30.24,SSW,202,3.6,3.8,55,0.00,,,0.00,0.00,VWS V14.01,2013-03-10 01:06:00,
2013-03-09 17:11:00,60.6,42.9,30.24,SSW,202,3.1,4.3,52,0.00,,,0.00,0.00,VWS V14.01,2013-03-10 01:11:00,
2013-03-09 17:15:00,57.7,45.7,30.24,SW,225,3.1,3.6,64,0.00,,,0.00,0.00,VWS V14.01,2013-03-10 01:15:00,
2013-03-09 17:16:00,60.3,44.0,30.24,SSW,202,0.0,0.0,55,0.00,,,0.00,0.00,VWS V14.01,2013-03-10 01:16:00,
2013-03-09 17:21:00,59.2,44.0,30.24,SSW,202,1.3,1.3,57,0.00,,,0.00,0.00,VWS V14.01,2013-03-10 01:21:00,
2013-03-09 17:27:00,59.2,43.5,30.24,SSW,202,2.5,3.6,56,0.00,,,0.00,0.00,VWS V14.01,2013-03-10 01:27:00,
2013-03-09 17:30:00,57.2,45.6,30.24,SW,225,4.3,7.8,65,0.00,,,0.00,0.00,VWS V14.01,2013-03-10 01:30:00,
2013-03-09 17:32:00,58.8,44.1,30.24,SSW,202,2.7,3.1,58,0.00,,,0.00,0.00,VWS V14.01,2013-03-10 01:32:00,
2013-03-09 17:37:00,59.2,43.5,30.24,SSW,202,3.1,4.3,56,0.00,,,0.00,0.00,VWS V14.01,2013-03-10 01:37:00,
2013-03-09 17:42:00,58.8,43.6,30.24,SSW,202,3.4,4.3,57,0.00,,,0.00,0.00,VWS V14.01,2013-03-10 01:42:00,
2013-03-09 17:45:00,55.9,46.3,30.24,South,180,2.5,6.5,70,0.00,,,0.00,0.00,VWS V14.01,2013-03-10 01:45:00,
2013-03-09 17:47:00,58.8,43.6,30.24,SSW,202,2.9,3.4,57,0.00,,,0.00,0.00,VWS V14.01,2013-03-10 01:47:00,
2013-03-09 17:52:00,58.5,44.6,30.24,SSW,202,2.9,3.4,60,0.00,,,0.00,0.00,VWS V14.01,2013-03-10 01:52:00,
2013-03-09 17:57:00,58.3,44.5,30.24,SW,225,2.7,3.8,60,0.00,,,0.00,0.00,VWS V14.01,2013-03-10 01:57:00,
2013-03-09 18:00:00,54.9,44.5,30.24,SSW,202,1.6,4.3,68,0.00,,,0.00,0.00,VWS V14.01,2013-03-10 02:00:00,
2013-03-09 18:02:00,58.1,45.2,30.24,SW,225,3.1,3.1,62,0.00,,,0.00,0.00,VWS V14.01,2013-03-10 02:02:00,
2013-03-09 18:07:00,57.6,46.3,30.24,SSW,202,1.6,3.1,66,0.00,,,0.00,0.00,VWS V14.01,2013-03-10 02:07:00,
2013-03-09 18:12:00,57.7,46.1,30.24,SSW,202,2.7,3.4,65,0.00,,,0.00,0.00,VWS V14.01,2013-03-10 02:12:00,
2013-03-09 18:15:00,53.8,44.2,30.24,SSW,202,2.7,3.1,70,0.00,,,0.00,0.00,VWS V14.01,2013-03-10 02:15:00,
2013-03-09 18:17:00,57.6,45.1,30.24,SSW,202,3.1,3.1,63,0.00,,,0.00,0.00,VWS V14.01,2013-03-10 02:17:00,
2013-03-09 18:22:00,57.2,45.6,30.24,South,180,0.0,3.1,65,0.00,,,0.00,0.00,VWS V14.01,2013-03-10 02:22:00,
2013-03-09 18:27:00,57.6,45.9,30.24,SSE,158,1.6,7.8,65,0.00,,,0.00,0.00,VWS V14.01,2013-03-10 02:27:00,
2013-03-09 18:30:00,53.2,44.5,30.24,SSW,202,2.5,3.8,72,0.00,,,0.00,0.00,VWS V14.01,2013-03-10 02:30:00,
2013-03-09 18:32:00,57.6,45.5,30.24,SSW,202,3.6,6.5,64,0.00,,,0.00,0.00,VWS V14.01,2013-03-10 02:32:00,
2013-03-09 18:37:00,56.8,46.8,30.24,SSW,202,3.1,6.5,69,0.00,,,0.00,0.00,VWS V14.01,2013-03-10 02:37:00,
2013-03-09 18:42:00,56.1,46.5,30.24,SSW,202,2.7,6.5,70,0.00,,,0.00,0.00,VWS V14.01,2013-03-10 02:42:00,
2013-03-09 18:45:00,52.5,44.5,30.24,South,180,1.3,2.9,74,0.00,,,0.00,0.00,VWS V14.01,2013-03-10 02:45:00,
2013-03-09 18:47:00,55.9,45.5,30.24,SSW,202,3.4,3.6,68,0.00,,,0.00,0.00,VWS V14.01,2013-03-10 02:47:00,
2013-03-09 18:52:00,55.8,45.0,30.24,South,180,0.0,4.3,67,0.00,,,0.00,0.00,VWS V14.01,2013-03-10 02:52:00,
2013-03-09 18:57:00,55.0,44.3,30.24,SSW,202,2.9,4.3,67,0.00,,,0.00,0.00,VWS V14.01,2013-03-10 02:57:00,
2013-03-09 19:00:00,51.6,44.0,30.24,South,180,0.0,2.9,75,0.00,,,0.00,0.00,VWS V14.01,2013-03-10 03:00:00,
2013-03-09 19:02:00,54.7,44.7,30.24,SSW,202,2.5,2.5,69,0.00,,,0.00,0.00,VWS V14.01,2013-03-10 03:02:00,
2013-03-09 19:07:00,54.3,44.8,30.24,SSW,202,1.6,2.7,70,0.00,,,0.00,0.00,VWS V14.01,2013-03-10 03:07:00,
2013-03-09 19:12:00,54.0,44.4,30.24,SSW,202,2.9,3.1,70,0.00,,,0.00,0.00,VWS V14.01,2013-03-10 03:12:00,
2013-03-09 19:15:00,51.1,43.8,30.24,SW,225,0.0,2.5,76,0.00,,,0.00,0.00,VWS V14.01,2013-03-10 03:15:00,
2013-03-09 19:17:00,53.4,44.6,30.24,SSW,202,1.6,2.7,72,0.00,,,0.00,0.00,VWS V14.01,2013-03-10 03:17:00,
2013-03-09 19:22:00,53.2,44.5,30.24,SSW,202,2.9,3.1,72,0.00,,,0.00,0.00,VWS V14.01,2013-03-10 03:22:00,
2013-03-09 19:27:00,53.2,44.1,30.24,SSW,202,2.9,3.8,71,0.00,,,0.00,0.00,VWS V14.01,2013-03-10 03:27:00,
2013-03-09 19:30:00,51.1,43.8,30.24,South,180,0.0,4.9,76,0.00,,,0.00,0.00,VWS V14.01,2013-03-10 03:30:00,
2013-03-09 19:32:00,53.2,44.5,30.24,SW,225,2.5,2.9,72,0.00,,,0.00,0.00,VWS V14.01,2013-03-10 03:32:00,
2013-03-09 19:37:00,52.9,44.5,30.24,South,180,2.5,2.9,73,0.00,,,0.00,0.00,VWS V14.01,2013-03-10 03:37:00,
2013-03-09 19:43:00,52.5,44.1,30.24,South,180,2.0,2.9,73,0.00,,,0.00,0.00,VWS V14.01,2013-03-10 03:43:00,
2013-03-09 19:45:00,50.9,45.0,30.24,South,180,0.9,4.3,80,0.00,,,0.00,0.00,VWS V14.01,2013-03-10 03:45:00,
2013-03-09 19:48:00,52.2,44.1,30.24,South,180,0.0,2.5,74,0.00,,,0.00,0.00,VWS V14.01,2013-03-10 03:48:00,
2013-03-09 19:53:00,52.2,44.5,30.24,South,180,0.0,2.9,75,0.00,,,0.00,0.00,VWS V14.01,2013-03-10 03:53:00,
2013-03-09 19:58:00,51.8,44.1,30.24,South,180,0.0,2.9,75,0.00,,,0.00,0.00,VWS V14.01,2013-03-10 03:58:00,
2013-03-09 20:00:00,50.9,44.6,30.24,South,180,2.5,3.6,79,0.00,,,0.00,0.00,VWS V14.01,2013-03-10 04:00:00,
2013-03-09 20:03:00,51.4,43.8,30.24,South,180,0.0,2.0,75,0.00,,,0.00,0.00,VWS V14.01,2013-03-10 04:03:00,
2013-03-09 20:08:00,51.4,43.8,30.24,South,180,0.0,2.5,75,0.00,,,0.00,0.00,VWS V14.01,2013-03-10 04:08:00,
2013-03-09 20:13:00,51.1,44.1,30.24,South,180,1.3,2.5,77,0.00,,,0.00,0.00,VWS V14.01,2013-03-10 04:13:00,
2013-03-09 20:15:00,50.4,43.8,30.24,SSW,202,0.0,3.1,78,0.00,,,0.00,0.00,VWS V14.01,2013-03-10 04:15:00,
2013-03-09 20:18:00,50.9,43.6,30.24,SW,225,0.0,3.4,76,0.00,,,0.00,0.00,VWS V14.01,2013-03-10 04:18:00,
2013-03-09 20:23:00,51.1,44.1,30.24,South,180,3.8,3.8,77,0.00,,,0.00,0.00,VWS V14.01,2013-03-10 04:23:00,
2013-03-09 20:28:00,50.9,44.0,30.24,WSW,248,2.9,4.9,77,0.00,,,0.00,0.00,VWS V14.01,2013-03-10 04:28:00,
2013-03-09 20:30:00,50.5,44.0,30.27,South,180,1.3,3.8,78,0.00,,,0.00,0.00,VWS V14.01,2013-03-10 04:30:00,
2013-03-09 20:33:00,50.9,43.6,30.24,NW,315,0.0,4.3,76,0.00,,,0.00,0.00,VWS V14.01,2013-03-10 04:33:00,
2013-03-09 20:38:00,50.9,44.3,30.24,WNW,292,2.5,4.3,78,0.00,,,0.00,0.00,VWS V14.01,2013-03-10 04:38:00,
2013-03-09 20:43:00,51.1,44.8,30.24,South,180,0.0,4.3,79,0.00,,,0.00,0.00,VWS V14.01,2013-03-10 04:43:00,
2013-03-09 20:45:00,50.4,43.1,30.24,West,270,2.2,4.0,76,0.00,,,0.00,0.00,VWS V14.01,2013-03-10 04:45:00,
2013-03-09 20:48:00,50.9,45.0,30.24,SSE,158,2.0,3.6,80,0.00,,,0.00,0.00,VWS V14.01,2013-03-10 04:48:00,
2013-03-09 20:53:00,51.1,44.5,30.24,SSW,202,2.0,3.6,78,0.00,,,0.00,0.00,VWS V14.01,2013-03-10 04:53:00,
2013-03-09 20:58:00,50.9,44.3,30.24,West,270,0.0,3.6,78,0.00,,,0.00,0.00,VWS V14.01,2013-03-10 04:58:00,
2013-03-09 21:00:00,50.9,44.6,30.24,South,180,2.5,3.6,79,0.00,,,0.00,0.00,VWS V14.01,2013-03-10 05:00:00,
2013-03-09 21:05:00,50.9,44.3,30.24,SSW,202,0.0,3.1,78,0.00,,,0.00,0.00,VWS V14.01,2013-03-10 05:05:00,
2013-03-09 21:10:00,50.5,44.0,30.24,SSW,202,0.0,3.1,78,0.00,,,0.00,0.00,VWS V14.01,2013-03-10 05:10:00,
2013-03-09 21:14:00,50.4,43.8,30.24,SSW,202,0.0,3.1,78,0.00,,,0.00,0.00,VWS V14.01,2013-03-10 05:14:00,
2013-03-09 21:15:00,50.0,43.8,30.24,SSE,158,0.0,1.1,79,0.00,,,0.00,0.00,VWS V14.01,2013-03-10 05:15:00,
2013-03-09 21:19:00,50.2,44.3,30.24,SSW,202,2.0,2.0,80,0.00,,,0.00,0.00,VWS V14.01,2013-03-10 05:19:00,
2013-03-09 21:24:00,50.4,44.1,30.27,SSW,202,2.5,3.1,79,0.00,,,0.00,0.00,VWS V14.01,2013-03-10 05:24:00,
2013-03-09 21:29:00,50.5,44.0,30.27,South,180,2.5,3.8,78,0.00,,,0.00,0.00,VWS V14.01,2013-03-10 05:29:00,
2013-03-09 21:30:00,50.0,43.8,30.27,SSE,158,0.0,2.2,79,0.00,,,0.00,0.00,VWS V14.01,2013-03-10 05:30:00,
2013-03-09 21:34:00,50.5,44.0,30.27,WNW,292,1.3,3.6,78,0.00,,,0.00,0.00,VWS V14.01,2013-03-10 05:34:00,
2013-03-09 21:39:00,50.4,43.4,30.24,South,180,0.0,3.6,77,0.00,,,0.00,0.00,VWS V14.01,2013-03-10 05:39:00,
2013-03-09 21:44:00,50.4,43.1,30.24,WSW,248,3.4,4.0,76,0.00,,,0.00,0.00,VWS V14.01,2013-03-10 05:44:00,
2013-03-09 21:45:00,49.1,43.8,30.27,SSE,158,0.0,0.0,82,0.00,,,0.00,0.00,VWS V14.01,2013-03-10 05:45:00,
2013-03-09 21:49:00,50.5,43.3,30.24,South,180,0.0,3.4,76,0.00,,,0.00,0.00,VWS V14.01,2013-03-10 05:49:00,
2013-03-09 21:54:00,50.5,43.6,30.27,SSE,158,1.6,3.4,77,0.00,,,0.00,0.00,VWS V14.01,2013-03-10 05:54:00,
2013-03-09 21:59:00,50.4,43.4,30.27,SSW,202,0.0,3.4,77,0.00,,,0.00,0.00,VWS V14.01,2013-03-10 05:59:00,
2013-03-09 22:00:00,50.4,45.1,30.27,North,0,0.0,3.8,82,0.00,,,0.00,0.00,VWS V14.01,2013-03-10 06:00:00,
2013-03-09 22:04:00,50.2,43.6,30.27,SSW,202,0.0,0.0,78,0.00,,,0.00,0.00,VWS V14.01,2013-03-10 06:04:00,
2013-03-09 22:09:00,50.0,43.4,30.24,SSE,158,0.0,0.0,78,0.00,,,0.00,0.00,VWS V14.01,2013-03-10 06:09:00,
2013-03-09 22:14:00,50.0,43.8,30.24,SSE,158,0.0,1.1,79,0.00,,,0.00,0.00,VWS V14.01,2013-03-10 06:14:00,
2013-03-09 22:15:00,49.1,43.8,30.24,NNW,338,0.0,0.0,82,0.00,,,0.00,0.00,VWS V14.01,2013-03-10 06:15:00,
2013-03-09 22:20:00,50.0,43.8,30.24,SSE,158,0.0,0.0,79,0.00,,,0.00,0.00,VWS V14.01,2013-03-10 06:20:00,
2013-03-09 22:25:00,50.2,43.9,30.27,SSE,158,0.0,2.2,79,0.00,,,0.00,0.00,VWS V14.01,2013-03-10 06:25:00,
2013-03-09 22:30:00,50.0,43.8,30.27,SSE,158,0.0,2.2,79,0.00,,,0.00,0.00,VWS V14.01,2013-03-10 06:30:00,
2013-03-09 22:35:00,49.8,43.9,30.27,SSE,158,0.0,0.0,80,0.00,,,0.00,0.00,VWS V14.01,2013-03-10 06:35:00,
2013-03-09 22:40:00,49.3,43.7,30.27,SSE,158,0.0,0.0,81,0.00,,,0.00,0.00,VWS V14.01,2013-03-10 06:40:00,
2013-03-09 22:45:00,49.1,43.8,30.27,SSE,158,0.0,0.0,82,0.00,,,0.00,0.00,VWS V14.01,2013-03-10 06:45:00,
2013-03-09 22:50:00,49.1,44.5,30.27,SSW,202,1.1,2.5,84,0.00,,,0.00,0.00,VWS V14.01,2013-03-10 06:50:00,
2013-03-09 22:55:00,50.0,45.4,30.27,SSW,202,3.4,3.8,84,0.00,,,0.00,0.00,VWS V14.01,2013-03-10 06:55:00,
2013-03-09 23:00:00,50.4,45.1,30.27,North,0,0.0,0.0,82,0.00,,,0.00,0.00,VWS V14.01,2013-03-10 07:00:00,
2013-03-09 23:05:00,50.0,44.7,30.27,NNW,338,0.0,0.0,82,0.00,,,0.00,0.00,VWS V14.01,2013-03-10 07:05:00,
2013-03-09 23:10:00,49.5,44.2,30.24,NNW,338,0.0,0.0,82,0.00,,,0.00,0.00,VWS V14.01,2013-03-10 07:10:00,
2013-03-09 23:15:00,49.1,43.8,30.24,NNW,338,0.0,0.0,82,0.00,,,0.00,0.00,VWS V14.01,2013-03-10 07:15:00,
2013-03-09 23:20:00,48.7,43.8,30.24,NNW,338,0.0,0.0,83,0.00,,,0.00,0.00,VWS V14.01,2013-03-10 07:20:00,
2013-03-09 23:25:00,48.6,44.0,30.27,NNW,338,0.0,0.0,84,0.00,,,0.00,0.00,VWS V14.01,2013-03-10 07:25:00,
2013-03-09 23:30:00,48.4,44.4,30.27,SSW,202,0.0,0.0,86,0.00,,,0.00,0.00,VWS V14.01,2013-03-10 07:30:00,
2013-03-09 23:35:00,48.2,44.5,30.27,SSW,202,0.0,0.0,87,0.00,,,0.00,0.00,VWS V14.01,2013-03-10 07:35:00,
2013-03-09 23:40:00,48.2,44.2,30.30,South,180,0.0,0.0,86,0.00,,,0.00,0.00,VWS V14.01,2013-03-10 07:40:00,
2013-03-09 23:45:00,48.0,43.7,30.30,South,180,0.0,0.0,85,0.00,,,0.00,0.00,VWS V14.01,2013-03-10 07:45:00,
2013-03-09 23:50:00,47.8,44.2,30.30,South,180,0.0,1.6,87,0.00,,,0.00,0.00,VWS V14.01,2013-03-10 07:50:00,
2013-03-09 23:55:00,47.7,44.3,30.27,SSW,202,0.0,1.6,88,0.00,,,0.00,0.00,VWS V14.01,2013-03-10 07:55:00,